Time;durP1;ratioP1;P1;durP2;ratioP2;P2;SDS_P1;SDS_P2;PMS_P1;PMS_P2;Temp;Humidity;BMP_temperature;BMP_pressure;BME280_temperature;BME280_humidity;BME280_pressure;Samples;Min_cycle;Max_cycle;Signal;HPM_P1;HPM_P2
2021/08/04 00:01:01;;;;;;;6.18;3.28;;;;;;;17.42;94.49;100359.31;5144642;28;20126;-78
2021/08/04 00:03:31;;;;;;;4.68;2.92;;;;;;;17.21;94.58;100351.94;5144855;28;20031;-78
2021/08/04 00:06:01;;;;;;;6.60;3.00;;;;;;;17.23;95.65;100352.66;5144923;28;20026;-78
2021/08/04 00:08:32;;;;;;;6.03;3.28;;;;;;;17.19;95.23;100354.69;5143171;28;20039;-78
2021/08/04 00:11:02;;;;;;;5.88;3.20;;;;;;;17.10;96.69;100359.69;5144915;28;20019;-78
2021/08/04 00:13:32;;;;;;;7.45;3.25;;;;;;;16.95;97.96;100360.72;5148698;28;20484;-78
2021/08/04 00:16:03;;;;;;;5.10;2.90;;;;;;;17.30;95.99;100353.97;5148711;28;20033;-78
2021/08/04 00:18:33;;;;;;;6.50;2.85;;;;;;;17.31;95.97;100364.44;5151452;28;20481;-78
2021/08/04 00:21:04;;;;;;;6.43;3.05;;;;;;;17.06;97.51;100358.22;5148043;28;20031;-78
2021/08/04 00:23:34;;;;;;;6.55;3.30;;;;;;;16.76;100.00;100365.47;5146850;28;20034;-78
2021/08/04 00:26:04;;;;;;;5.60;2.95;;;;;;;16.74;100.00;100361.25;5149951;28;20030;-79
2021/08/04 00:28:35;;;;;;;7.53;3.42;;;;;;;16.79;100.00;100360.84;5147023;28;20027;-78
2021/08/04 00:31:05;;;;;;;6.60;3.20;;;;;;;16.90;99.71;100366.31;5143745;28;20062;-78
2021/08/04 00:33:35;;;;;;;5.38;2.95;;;;;;;16.84;100.00;100357.94;5147672;28;20035;-78
2021/08/04 00:36:06;;;;;;;6.85;3.35;;;;;;;16.77;100.00;100361.91;5142519;28;20026;-78
2021/08/04 00:38:36;;;;;;;9.70;3.50;;;;;;;16.60;100.00;100356.88;5143036;28;20109;-78
2021/08/04 00:41:06;;;;;;;6.45;2.88;;;;;;;16.91;100.00;100361.84;5146518;28;20022;-78
2021/08/04 00:43:37;;;;;;;5.30;3.08;;;;;;;17.18;98.73;100362.72;5148007;28;20035;-78
2021/08/04 00:46:10;;;;;;;5.20;3.30;;;;;;;17.16;98.61;100364.59;5146806;28;20042;-78
2021/08/04 00:48:42;;;;;;;6.38;3.40;;;;;;;16.97;98.72;100369.41;5147397;28;20374;-78
2021/08/04 00:51:12;;;;;;;5.32;2.90;;;;;;;17.05;99.48;100362.66;5147803;28;20436;-78
2021/08/04 00:53:42;;;;;;;5.00;3.03;;;;;;;16.90;99.52;100373.34;5147432;28;20081;-78
2021/08/04 00:56:12;;;;;;;3.47;2.80;;;;;;;16.93;100.00;100378.44;5150924;28;20081;-78
2021/08/04 00:58:43;;;;;;;5.65;3.00;;;;;;;16.71;100.00;100367.56;5148264;28;20034;-78
2021/08/04 01:01:21;;;;;;;7.05;3.10;;;;;;;16.49;100.00;100377.78;5145898;28;20461;-78
2021/08/04 01:04:08;;;;;;;3.95;3.10;;;;;;;16.49;100.00;100372.53;5148776;28;20226;-78
2021/08/04 01:07:04;;;;;;;5.47;3.17;;;;;;;16.41;100.00;100377.41;5147212;28;20260;-78
2021/08/04 01:09:42;;;;;;;6.50;3.33;;;;;;;16.36;100.00;100376.84;5146316;28;20061;-78
2021/08/04 01:12:21;;;;;;;5.70;3.05;;;;;;;16.37;100.00;100377.72;5147827;28;20019;-78
2021/08/04 01:15:00;;;;;;;3.65;3.17;;;;;;;16.39;100.00;100371.38;5146403;28;20113;-78
2021/08/04 01:17:31;;;;;;;5.57;3.22;;;;;;;16.47;100.00;100379.69;5144524;28;20031;-78
2021/08/04 01:20:12;;;;;;;6.93;3.90;;;;;;;16.22;100.00;100374.19;5147358;28;20073;-78
2021/08/04 01:23:13;;;;;;;7.10;3.60;;;;;;;16.19;100.00;100376.19;5147831;28;20031;-78
2021/08/04 01:26:07;;;;;;;5.57;3.67;;;;;;;16.18;100.00;100371.88;5147998;28;20035;-78
2021/08/04 01:28:42;;;;;;;5.53;3.28;;;;;;;16.00;100.00;100376.44;5146007;28;20027;-78
2021/08/04 01:31:18;;;;;;;6.78;3.45;;;;;;;16.01;100.00;100377.31;5145629;28;20027;-78
2021/08/04 01:33:50;;;;;;;5.45;3.30;;;;;;;16.02;100.00;100374.56;5146486;28;20513;-78
2021/08/04 01:36:21;;;;;;;7.60;3.42;;;;;;;16.22;100.00;100368.91;5146137;28;20058;-77
2021/08/04 01:38:53;;;;;;;6.30;3.47;;;;;;;16.25;100.00;100368.72;5148737;28;20093;-78
2021/08/04 01:41:24;;;;;;;5.68;2.80;;;;;;;16.62;100.00;100362.88;5147456;28;20031;-78
2021/08/04 01:43:56;;;;;;;5.45;3.17;;;;;;;16.58;100.00;100366.66;5146658;28;20065;-79
2021/08/04 01:46:27;;;;;;;5.18;3.20;;;;;;;16.45;100.00;100371.03;5143473;28;20030;-78
2021/08/04 01:49:00;;;;;;;5.88;3.15;;;;;;;16.24;100.00;100359.13;5146407;28;20026;-78
2021/08/04 01:51:31;;;;;;;6.57;3.03;;;;;;;16.22;100.00;100358.38;5142939;28;20031;-78
2021/08/04 01:54:03;;;;;;;5.80;3.35;;;;;;;16.32;100.00;100363.91;5146919;28;20045;-78
2021/08/04 01:56:34;;;;;;;6.97;3.58;;;;;;;16.35;100.00;100369.88;5149632;28;20122;-78
2021/08/04 01:59:05;;;;;;;5.68;3.28;;;;;;;16.34;100.00;100365.53;5145599;28;20492;-78
2021/08/04 02:01:37;;;;;;;7.68;3.15;;;;;;;16.39;100.00;100360.00;5146355;28;20441;-78
2021/08/04 02:04:07;;;;;;;5.35;3.60;;;;;;;16.30;100.00;100360.53;5147398;28;20086;-78
2021/08/04 02:06:43;;;;;;;5.53;3.33;;;;;;;16.33;100.00;100358.56;5147502;28;20066;-79
2021/08/04 02:09:22;;;;;;;5.20;3.45;;;;;;;16.32;100.00;100363.91;5149190;28;20030;-78
2021/08/04 02:11:57;;;;;;;5.35;3.72;;;;;;;16.09;100.00;100360.09;5147826;28;20030;-79
2021/08/04 02:15:00;;;;;;;6.60;3.60;;;;;;;16.04;100.00;100363.94;5142289;28;20118;-77
2021/08/04 02:17:39;;;;;;;6.47;3.47;;;;;;;16.15;100.00;100356.19;5139610;28;20049;-79
2021/08/04 02:20:20;;;;;;;4.75;3.40;;;;;;;16.22;100.00;100352.25;5146517;28;20141;-78
2021/08/04 02:22:50;;;;;;;3.95;2.97;;;;;;;16.02;100.00;100353.47;5145241;28;20497;-79
2021/08/04 02:25:49;;;;;;;4.37;3.03;;;;;;;16.04;100.00;100354.22;5148775;28;20034;-79
2021/08/04 02:28:23;;;;;;;7.18;3.45;;;;;;;15.90;100.00;100348.13;5122804;28;20084;-79
2021/08/04 02:30:54;;;;;;;4.70;3.40;;;;;;;15.87;100.00;100346.50;5146409;28;20082;-79
2021/08/04 02:33:24;;;;;;;4.95;3.03;;;;;;;16.00;100.00;100349.22;5145598;28;20308;-79
2021/08/04 02:35:56;;;;;;;3.53;3.10;;;;;;;16.19;100.00;100341.91;5144843;28;20113;-77
2021/08/04 02:38:29;;;;;;;4.50;2.75;;;;;;;16.42;100.00;100344.81;5142845;28;20035;-79
2021/08/04 02:41:00;;;;;;;6.55;3.40;;;;;;;16.00;100.00;100351.88;5148087;28;20074;-78
2021/08/04 02:43:31;;;;;;;5.85;3.28;;;;;;;15.46;100.00;100348.13;5146914;28;20034;-78
2021/08/04 02:46:03;;;;;;;4.65;3.17;;;;;;;15.47;100.00;100351.59;5146400;28;20035;-80
2021/08/04 02:48:34;;;;;;;5.20;2.90;;;;;;;15.72;100.00;100355.31;5145138;28;20031;-78
2021/08/04 02:51:09;;;;;;;5.13;2.90;;;;;;;15.82;100.00;100353.84;5143872;28;20033;-79
2021/08/04 02:53:39;;;;;;;5.03;2.90;;;;;;;16.06;100.00;100357.63;5145344;28;20290;-79
2021/08/04 02:56:10;;;;;;;7.55;2.90;;;;;;;16.40;100.00;100359.88;5148749;28;20462;-79
2021/08/04 02:58:40;;;;;;;3.78;3.00;;;;;;;16.41;100.00;100358.94;5144647;28;20125;-78
2021/08/04 03:01:10;;;;;;;6.13;3.30;;;;;;;16.25;100.00;100358.16;5143882;28;20034;-78
2021/08/04 03:03:41;;;;;;;6.22;3.05;;;;;;;16.25;100.00;100352.91;5146100;28;20274;-79
2021/08/04 03:06:11;;;;;;;5.35;3.00;;;;;;;16.44;100.00;100361.41;5145764;28;20405;-79
2021/08/04 03:08:41;;;;;;;4.55;2.65;;;;;;;16.48;100.00;100354.13;5146538;28;20105;-77
2021/08/04 03:11:12;;;;;;;5.03;3.30;;;;;;;16.35;100.00;100361.97;5145485;28;20110;-77
2021/08/04 03:13:42;;;;;;;6.32;3.45;;;;;;;16.16;100.00;100353.47;5144802;28;20031;-77
2021/08/04 03:16:13;;;;;;;7.78;3.40;;;;;;;16.17;100.00;100354.31;5146446;28;20018;-78
2021/08/04 03:18:43;;;;;;;7.22;2.90;;;;;;;16.37;100.00;100359.25;5144633;28;20433;-79
2021/08/04 03:21:13;;;;;;;3.83;2.85;;;;;;;16.28;100.00;100358.00;5145887;28;20026;-79
2021/08/04 03:23:43;;;;;;;5.38;2.88;;;;;;;16.22;100.00;100358.38;5145746;28;20039;-79
2021/08/04 03:26:14;;;;;;;5.75;3.13;;;;;;;16.36;100.00;100355.75;5147910;28;20033;-79
2021/08/04 03:28:44;;;;;;;6.20;3.00;;;;;;;16.49;100.00;100351.41;5144207;28;20031;-80
2021/08/04 03:31:14;;;;;;;6.60;3.00;;;;;;;16.27;100.00;100360.72;5144699;28;20282;-78
2021/08/04 03:33:45;;;;;;;5.85;3.83;;;;;;;15.78;100.00;100356.75;5146812;28;20105;-77
2021/08/04 03:36:15;;;;;;;8.52;4.53;;;;;;;15.87;100.00;100367.59;5143978;28;20030;-79
2021/08/04 03:38:46;;;;;;;6.45;3.72;;;;;;;15.94;100.00;100363.66;5147577;28;20121;-80
2021/08/04 03:41:16;;;;;;;6.07;3.72;;;;;;;15.81;100.00;100361.84;5145835;28;20039;-79
2021/08/04 03:43:46;;;;;;;6.35;3.45;;;;;;;15.83;100.00;100366.09;5144854;28;20393;-80
2021/08/04 03:46:17;;;;;;;6.25;3.08;;;;;;;15.80;100.00;100362.78;5145095;28;20028;-77
2021/08/04 03:48:47;;;;;;;6.47;3.15;;;;;;;15.79;100.00;100369.84;5145818;28;20437;-77
2021/08/04 03:51:17;;;;;;;4.72;3.47;;;;;;;15.81;100.00;100361.84;5144723;28;20169;-79
2021/08/04 03:53:48;;;;;;;5.55;3.20;;;;;;;15.86;100.00;100365.06;5144417;28;20110;-80
2021/08/04 03:56:18;;;;;;;4.87;3.03;;;;;;;16.00;100.00;100358.00;5147491;28;20026;-80
2021/08/04 03:58:48;;;;;;;7.20;3.05;;;;;;;16.02;100.00;100358.75;5143301;28;20454;-78
2021/08/04 04:01:19;;;;;;;5.05;3.20;;;;;;;15.89;100.00;100364.88;5141767;28;20026;-79
2021/08/04 04:03:49;;;;;;;7.00;3.10;;;;;;;16.01;100.00;100364.97;5142805;28;20485;-78
2021/08/04 04:06:19;;;;;;;4.95;2.90;;;;;;;15.92;100.00;100365.53;5149709;28;20023;-78
2021/08/04 04:08:49;;;;;;;4.43;3.10;;;;;;;15.98;100.00;100364.28;5149992;28;20062;-77
2021/08/04 04:11:20;;;;;;;6.28;2.90;;;;;;;16.10;100.00;100369.69;5147994;28;20281;-79
2021/08/04 04:13:50;;;;;;;4.82;2.83;;;;;;;16.02;100.00;100377.19;5148920;28;20027;-79
2021/08/04 04:16:22;;;;;;;5.07;2.85;;;;;;;15.75;100.00;100380.66;5151663;28;20481;-79
2021/08/04 04:18:52;;;;;;;6.43;2.90;;;;;;;15.85;100.00;100377.38;5158901;28;20162;-80
2021/08/04 04:21:23;;;;;;;4.03;2.90;;;;;;;15.88;100.00;100381.63;5154201;28;20377;-81
2021/08/04 04:23:53;;;;;;;5.00;3.08;;;;;;;15.84;100.00;100380.13;5149938;28;20026;-81
2021/08/04 04:26:23;;;;;;;6.15;3.15;;;;;;;16.03;100.00;100378.06;5152701;28;20454;-81
2021/08/04 04:28:54;;;;;;;5.18;2.80;;;;;;;16.05;100.00;100378.81;5159668;28;20050;-81
2021/08/04 04:31:24;;;;;;;5.97;3.20;;;;;;;16.13;100.00;100381.81;5156978;28;20113;-81
2021/08/04 04:33:54;;;;;;;6.65;3.03;;;;;;;15.98;100.00;100385.38;5153440;28;20032;-78
2021/08/04 04:36:25;;;;;;;5.47;3.08;;;;;;;15.97;100.00;100386.31;5152985;28;20040;-80
2021/08/04 04:38:55;;;;;;;5.07;3.20;;;;;;;15.95;100.00;100396.13;5151024;28;20026;-80
2021/08/04 04:41:25;;;;;;;5.70;3.13;;;;;;;16.19;100.00;100390.22;5154010;28;20038;-80
2021/08/04 04:43:56;;;;;;;5.53;3.03;;;;;;;16.25;100.00;100395.09;5152287;28;20693;-81
2021/08/04 04:46:26;;;;;;;8.27;3.33;;;;;;;16.24;100.00;100398.69;5151103;28;20030;-81
2021/08/04 04:48:56;;;;;;;8.00;3.35;;;;;;;16.19;100.00;100395.47;5148898;28;20493;-80
2021/08/04 04:51:27;;;;;;;5.70;3.13;;;;;;;16.31;100.00;100397.38;5154536;28;20392;-79
2021/08/04 04:53:57;;;;;;;7.15;3.50;;;;;;;16.25;100.00;100392.44;5153106;28;20332;-78
2021/08/04 04:56:27;;;;;;;7.60;3.40;;;;;;;16.21;100.00;100398.88;5151675;28;20031;-79
2021/08/04 04:58:57;;;;;;;5.70;3.40;;;;;;;16.23;100.00;100398.78;5153660;28;20023;-80
2021/08/04 05:01:28;;;;;;;8.48;3.45;;;;;;;16.36;100.00;100399.78;5154310;28;20490;-80
2021/08/04 05:03:58;;;;;;;4.87;3.03;;;;;;;16.36;100.00;100405.88;5155776;28;20018;-80
2021/08/04 05:06:30;;;;;;;6.18;3.35;;;;;;;16.23;100.00;100399.63;5153802;28;20554;-81
2021/08/04 05:09:00;;;;;;;4.78;3.17;;;;;;;16.35;100.00;100403.34;5154792;28;20022;-81
2021/08/04 05:11:30;;;;;;;6.20;3.15;;;;;;;16.68;100.00;100407.34;5149679;28;20109;-81
2021/08/04 05:14:01;;;;;;;4.80;2.90;;;;;;;16.71;100.00;100409.78;5155588;28;20633;-81
2021/08/04 05:16:31;;;;;;;5.45;3.28;;;;;;;16.60;100.00;100411.41;5151659;28;20382;-80
2021/08/04 05:19:01;;;;;;;6.00;3.40;;;;;;;16.42;100.00;100415.22;5152797;28;20094;-80
2021/08/04 05:21:32;;;;;;;6.22;3.20;;;;;;;16.59;100.00;100415.00;5153266;28;20122;-77
2021/08/04 05:24:03;;;;;;;4.97;3.30;;;;;;;16.98;100.00;100423.91;5151894;28;20026;-77
2021/08/04 05:26:34;;;;;;;4.82;3.28;;;;;;;16.99;100.00;100421.13;5146031;28;20274;-80
2021/08/04 05:29:04;;;;;;;5.28;3.20;;;;;;;17.13;100.00;100421.09;5147884;28;20027;-80
2021/08/04 05:31:34;;;;;;;5.27;3.07;;;;;;;17.21;100.00;100426.75;5147136;28;20023;-79
2021/08/04 05:34:05;;;;;;;5.07;3.08;;;;;;;17.27;100.00;100430.75;5146013;28;20274;-81
2021/08/04 05:36:35;;;;;;;7.82;3.38;;;;;;;17.31;100.00;100421.72;5146888;28;20504;-81
2021/08/04 05:39:05;;;;;;;8.00;3.50;;;;;;;17.17;100.00;100424.41;5149514;28;20039;-81
2021/08/04 05:41:36;;;;;;;10.63;3.83;;;;;;;17.26;100.00;100426.44;5147093;28;20038;-81
2021/08/04 05:44:06;;;;;;;7.32;3.60;;;;;;;17.27;100.00;100420.19;5146813;28;20282;-78
2021/08/04 05:46:36;;;;;;;8.23;3.87;;;;;;;17.28;99.76;100421.94;5148255;28;20037;-78
2021/08/04 05:49:07;;;;;;;7.00;3.70;;;;;;;17.29;100.00;100426.25;5146724;28;20364;-78
2021/08/04 05:51:37;;;;;;;6.30;3.58;;;;;;;17.48;98.97;100414.41;5145800;28;20481;-79
2021/08/04 05:54:07;;;;;;;6.17;3.20;;;;;;;17.68;98.89;100423.66;5147974;28;20025;-79
2021/08/04 05:56:38;;;;;;;5.55;3.60;;;;;;;17.71;98.44;100424.31;5148621;28;20685;-79
2021/08/04 05:59:08;;;;;;;5.40;2.70;;;;;;;17.83;98.70;100422.63;5146873;28;20461;-80
2021/08/04 06:01:38;;;;;;;4.93;3.10;;;;;;;17.86;97.79;100414.47;5147027;28;20121;-80
2021/08/04 06:04:08;;;;;;;10.38;3.90;;;;;;;17.84;97.14;100419.03;5147603;28;20278;-80
2021/08/04 06:06:39;;;;;;;7.23;3.53;;;;;;;17.92;98.56;100419.34;5143906;28;20027;-80
2021/08/04 06:09:09;;;;;;;7.25;3.70;;;;;;;18.08;95.08;100425.28;5147313;28;20317;-80
2021/08/04 06:11:39;;;;;;;10.27;3.90;;;;;;;17.95;94.91;100430.56;5148355;28;20023;-81
2021/08/04 06:14:10;;;;;;;8.27;3.72;;;;;;;18.25;93.62;100435.56;5147020;28;20031;-79
2021/08/04 06:16:40;;;;;;;8.98;3.53;;;;;;;17.93;98.79;100434.25;5146011;28;20046;-81
2021/08/04 06:19:10;;;;;;;7.70;3.08;;;;;;;18.22;97.88;100438.41;5146803;28;20041;-80
2021/08/04 06:21:40;;;;;;;11.97;3.40;;;;;;;18.15;98.51;100440.63;5146032;28;20493;-81
2021/08/04 06:24:11;;;;;;;8.23;3.47;;;;;;;18.46;96.66;100436.72;5146884;28;20321;-80
2021/08/04 06:26:41;;;;;;;10.98;3.45;;;;;;;18.46;96.07;100449.97;5148264;28;20118;-81
2021/08/04 06:29:11;;;;;;;11.85;3.50;;;;;;;18.38;94.20;100445.19;5145529;28;20027;-81
2021/08/04 06:31:42;;;;;;;16.42;3.63;;;;;;;18.23;95.99;100450.69;5146614;28;20066;-77
2021/08/04 06:34:12;;;;;;;10.02;3.42;;;;;;;17.98;97.56;100448.03;5146984;28;20050;-78
2021/08/04 06:36:42;;;;;;;7.45;3.58;;;;;;;18.41;95.66;100441.50;5146369;28;20022;-78
2021/08/04 06:39:13;;;;;;;14.10;3.55;;;;;;;18.73;92.40;100448.03;5147794;28;20027;-79
2021/08/04 06:41:43;;;;;;;7.10;3.60;;;;;;;18.99;89.37;100438.13;5146290;28;20056;-81
2021/08/04 06:44:13;;;;;;;9.88;3.58;;;;;;;18.86;87.85;100445.25;5142679;28;20031;-80
2021/08/04 06:46:43;;;;;;;9.63;3.55;;;;;;;19.26;87.35;100440.63;5143079;28;20101;-81
2021/08/04 06:49:14;;;;;;;9.27;3.38;;;;;;;19.53;85.65;100447.38;5146088;28;20695;-80
2021/08/04 06:51:44;;;;;;;5.18;3.28;;;;;;;19.62;83.32;100443.19;5145804;28;20027;-81
2021/08/04 06:54:14;;;;;;;9.47;3.20;;;;;;;19.88;82.76;100445.59;5147200;28;20081;-80
2021/08/04 06:56:45;;;;;;;6.57;3.05;;;;;;;20.13;83.46;100449.91;5146879;28;20317;-80
2021/08/04 06:59:16;;;;;;;7.73;3.10;;;;;;;19.80;82.97;100445.31;5144600;28;20249;-79
2021/08/04 07:01:46;;;;;;;8.75;3.40;;;;;;;18.65;87.49;100453.03;5144273;28;20293;-80
2021/08/04 07:04:16;;;;;;;7.30;3.55;;;;;;;18.69;87.78;100449.22;5146496;28;20030;-80
2021/08/04 07:06:54;;;;;;;7.87;3.40;;;;;;;18.97;88.09;100460.38;5144890;28;20076;-78
2021/08/04 07:09:25;;;;;;;8.65;3.80;;;;;;;19.42;86.60;100457.91;5147794;28;20297;-81
2021/08/04 07:11:55;;;;;;;8.65;3.22;;;;;;;19.94;86.92;100452.25;5146933;28;20052;-77
2021/08/04 07:14:25;;;;;;;7.70;3.40;;;;;;;19.89;86.87;100457.03;5145295;28;20035;-79
2021/08/04 07:16:55;;;;;;;9.20;3.38;;;;;;;20.06;86.31;100461.94;5144865;28;20026;-79
2021/08/04 07:19:26;;;;;;;11.40;3.60;;;;;;;19.90;87.52;100462.22;5144241;28;20221;-78
2021/08/04 07:21:56;;;;;;;9.93;3.50;;;;;;;20.30;83.21;100462.72;5145220;28;20186;-79
2021/08/04 07:24:27;;;;;;;9.07;3.60;;;;;;;19.72;85.59;100460.09;5145076;28;20397;-80
2021/08/04 07:26:57;;;;;;;8.27;3.55;;;;;;;19.87;84.78;100465.13;5145634;28;20034;-79
2021/08/04 07:29:27;;;;;;;8.30;3.42;;;;;;;19.64;86.46;100473.09;5145366;28;20437;-79
2021/08/04 07:31:58;;;;;;;5.53;2.80;;;;;;;20.42;84.28;100473.25;5143655;28;20111;-79
2021/08/04 07:34:28;;;;;;;7.00;3.13;;;;;;;20.73;79.97;100467.22;5144160;28;20041;-80
2021/08/04 07:36:58;;;;;;;8.45;3.00;;;;;;;20.60;79.72;100471.81;5142908;28;20022;-79
2021/08/04 07:39:29;;;;;;;6.43;2.80;;;;;;;21.06;77.69;100468.06;5147677;28;20034;-80
2021/08/04 07:41:59;;;;;;;6.63;2.93;;;;;;;21.04;77.48;100463.88;5140282;28;20420;-80
2021/08/04 07:44:29;;;;;;;7.38;2.80;;;;;;;21.83;76.47;100461.69;5145219;28;20319;-78
2021/08/04 07:46:59;;;;;;;6.32;2.85;;;;;;;22.51;72.85;100454.06;5144932;28;20473;-81
2021/08/04 07:49:30;;;;;;;6.70;2.73;;;;;;;23.05;69.87;100450.91;5146274;28;20045;-81
2021/08/04 07:52:00;;;;;;;4.87;2.27;;;;;;;22.91;69.84;100463.78;5145400;28;20270;-80
2021/08/04 07:54:30;;;;;;;7.95;2.60;;;;;;;21.76;71.89;100463.19;5145988;28;20709;-77
2021/08/04 07:57:02;;;;;;;8.73;2.70;;;;;;;22.48;73.26;100459.66;5146789;28;20476;-79
2021/08/04 07:59:32;;;;;;;8.65;2.60;;;;;;;22.76;69.44;100462.44;5144791;28;20270;-79
2021/08/04 08:02:04;;;;;;;6.10;2.60;;;;;;;22.83;71.32;100461.78;5143387;28;20094;-80
2021/08/04 08:04:34;;;;;;;6.35;2.33;;;;;;;22.73;70.96;100461.91;5144889;28;20034;-81
2021/08/04 08:07:05;;;;;;;4.97;2.60;;;;;;;23.33;70.42;100458.16;5144202;28;20161;-79
2021/08/04 08:09:35;;;;;;;4.50;2.50;;;;;;;23.50;68.62;100457.50;5147703;28;20085;-79
2021/08/04 08:12:07;;;;;;;4.35;2.38;;;;;;;24.23;68.89;100454.25;5146005;28;20456;-79
2021/08/04 08:14:38;;;;;;;5.57;2.22;;;;;;;24.42;69.21;100452.38;5145624;28;20029;-79
2021/08/04 08:17:08;;;;;;;4.75;2.15;;;;;;;24.69;67.77;100451.63;5146182;28;20517;-80
2021/08/04 08:19:39;;;;;;;3.63;2.30;;;;;;;25.19;67.47;100446.63;5143856;28;20039;-79
2021/08/04 08:22:10;;;;;;;5.47;2.53;;;;;;;23.18;69.68;100456.88;5143908;28;20039;-80
2021/08/04 08:24:40;;;;;;;4.37;2.30;;;;;;;24.25;67.37;100453.13;5146388;28;20081;-79
2021/08/04 08:27:10;;;;;;;4.03;2.10;;;;;;;24.67;67.10;100451.78;5146654;28;20285;-79
2021/08/04 08:29:41;;;;;;;4.47;2.22;;;;;;;23.68;68.20;100450.47;5144155;28;20490;-79
2021/08/04 08:32:11;;;;;;;5.18;2.53;;;;;;;23.27;70.33;100458.72;5146235;28;20420;-79
2021/08/04 08:34:41;;;;;;;3.90;2.10;;;;;;;23.27;70.29;100449.88;5144243;28;20030;-80
2021/08/04 08:37:11;;;;;;;5.80;2.35;;;;;;;23.59;71.51;100455.81;5143553;28;20376;-80
2021/08/04 08:39:42;;;;;;;6.53;2.47;;;;;;;23.85;69.51;100451.66;5145299;28;20053;-79
2021/08/04 08:42:17;;;;;;;5.10;2.40;;;;;;;24.24;67.52;100453.28;5144380;28;20294;-79
2021/08/04 08:44:47;;;;;;;5.35;2.25;;;;;;;24.21;68.71;100449.06;5145601;28;20365;-79
2021/08/04 08:47:18;;;;;;;8.10;2.38;;;;;;;23.87;69.71;100449.66;5146574;28;20442;-79
2021/08/04 08:49:50;;;;;;;6.85;2.53;;;;;;;23.76;68.82;100455.97;5143053;28;20026;-79
2021/08/04 08:52:21;;;;;;;4.07;2.55;;;;;;;23.71;69.05;100452.84;5144496;28;20022;-79
2021/08/04 08:54:51;;;;;;;4.68;2.60;;;;;;;23.51;70.64;100455.69;5150149;28;20033;-79
2021/08/04 08:57:21;;;;;;;6.85;2.70;;;;;;;23.02;72.23;100459.19;5149139;28;20071;-79
2021/08/04 08:59:52;;;;;;;5.53;2.47;;;;;;;22.82;72.04;100456.59;5147568;28;20023;-79
2021/08/04 09:02:24;;;;;;;4.65;2.42;;;;;;;23.63;70.83;100447.38;5148776;28;20387;-79
2021/08/04 09:05:08;;;;;;;4.78;2.40;;;;;;;23.47;70.51;100448.91;5148865;28;20090;-79
2021/08/04 09:07:43;;;;;;;5.55;2.83;;;;;;;23.63;72.78;100455.41;5144391;28;20437;-79
2021/08/04 09:10:27;;;;;;;4.47;2.85;;;;;;;22.63;76.00;100450.34;5148893;28;20030;-79
2021/08/04 09:13:01;;;;;;;4.80;2.65;;;;;;;23.26;74.59;100453.50;5141766;28;20023;-79
2021/08/04 09:15:38;;;;;;;4.07;2.33;;;;;;;23.40;70.32;100440.59;5144721;28;20230;-79
2021/08/04 09:18:11;;;;;;;6.35;2.85;;;;;;;24.06;68.68;100437.13;5145958;28;20508;-79
2021/08/04 09:20:53;;;;;;;5.40;2.78;;;;;;;24.51;68.23;100438.16;5147062;28;20034;-79
2021/08/04 09:23:25;;;;;;;3.83;2.13;;;;;;;24.56;69.97;100430.56;5146886;28;20022;-79
2021/08/04 09:26:14;;;;;;;4.72;2.50;;;;;;;25.13;68.16;100443.69;5149248;28;20026;-79
2021/08/04 09:29:09;;;;;;;4.18;2.20;;;;;;;24.89;69.75;100435.34;5145444;28;20036;-79
2021/08/04 09:31:39;;;;;;;5.50;2.50;;;;;;;24.49;68.13;100426.75;5146210;28;20058;-79
2021/08/04 09:34:40;;;;;;;5.47;2.30;;;;;;;23.69;68.42;100427.31;5148223;28;20042;-79
2021/08/04 09:37:19;;;;;;;6.32;2.40;;;;;;;23.38;68.34;100433.75;5144552;28;20030;-79
2021/08/04 09:39:52;;;;;;;4.70;2.30;;;;;;;22.92;69.10;100433.47;5150901;28;20393;-78
2021/08/04 09:42:43;;;;;;;3.78;2.25;;;;;;;23.01;69.42;100428.16;5146972;28;20041;-78
2021/08/04 09:45:16;;;;;;;3.97;2.10;;;;;;;23.19;68.71;100428.38;5148284;28;20481;-78
2021/08/04 09:47:55;;;;;;;7.63;2.70;;;;;;;22.35;70.68;100432.34;5149364;28;20038;-79
2021/08/04 09:50:26;;;;;;;4.32;2.20;;;;;;;23.03;69.70;100428.03;5146793;28;20026;-79
2021/08/04 09:52:57;;;;;;;4.30;2.10;;;;;;;22.42;69.48;100429.06;5146273;28;20033;-79
2021/08/04 09:55:27;;;;;;;4.50;2.40;;;;;;;21.85;71.38;100438.47;5148947;28;20035;-79
2021/08/04 09:57:59;;;;;;;3.63;2.00;;;;;;;22.13;69.60;100422.72;5147981;28;20023;-78
2021/08/04 10:00:30;;;;;;;6.35;2.00;;;;;;;21.74;71.98;100436.69;5148178;28;20037;-78
2021/08/04 10:03:18;;;;;;;6.18;2.70;;;;;;;21.20;75.78;100435.06;5145897;28;20166;-79
2021/08/04 10:05:48;;;;;;;7.40;2.60;;;;;;;20.70;77.68;100432.94;5143421;28;20049;-78
2021/08/04 10:08:19;;;;;;;9.75;2.80;;;;;;;20.84;77.61;100430.91;5152466;28;20042;-78
2021/08/04 10:10:56;;;;;;;10.90;3.07;;;;;;;20.75;77.79;100430.75;5147587;28;20031;-78
2021/08/04 10:13:31;;;;;;;6.60;2.78;;;;;;;20.61;77.02;100425.69;5147165;28;20270;-78
2021/08/04 10:16:02;;;;;;;7.28;2.70;;;;;;;20.64;78.06;100429.91;5143184;28;20038;-78
2021/08/04 10:18:34;;;;;;;6.13;2.80;;;;;;;20.64;78.12;100437.88;5146321;28;20505;-78
2021/08/04 10:21:11;;;;;;;4.00;3.00;;;;;;;20.80;78.45;100439.19;5145734;28;20084;-79
2021/08/04 10:23:51;;;;;;;6.00;3.00;;;;;;;20.81;77.91;100427.59;5146106;28;20034;-78
2021/08/04 10:26:21;;;;;;;6.35;3.00;;;;;;;21.04;79.52;100434.63;5148645;28;20022;-79
2021/08/04 10:28:55;;;;;;;10.70;3.33;;;;;;;20.90;79.93;100429.56;5144981;28;20036;-78
2021/08/04 10:31:26;;;;;;;8.13;2.90;;;;;;;20.59;80.80;100437.38;5145779;28;20035;-79
2021/08/04 10:33:58;;;;;;;6.32;3.20;;;;;;;20.61;81.56;100430.16;5144994;28;20374;-78
2021/08/04 10:36:37;;;;;;;5.38;3.22;;;;;;;20.74;83.01;100437.03;5152007;28;20487;-78
2021/08/04 10:39:15;;;;;;;9.38;3.60;;;;;;;20.84;82.45;100432.69;5148092;28;20030;-78
2021/08/04 10:42:02;;;;;;;6.30;3.22;;;;;;;21.05;83.79;100439.78;5148629;28;20093;-79
2021/08/04 10:44:33;;;;;;;6.78;3.60;;;;;;;20.97;83.88;100438.72;5149567;28;20037;-79
2021/08/04 10:47:04;;;;;;;8.93;3.83;;;;;;;21.29;85.90;100437.81;5155252;28;20030;-79
2021/08/04 10:49:35;;;;;;;6.03;3.47;;;;;;;21.25;84.00;100432.88;5146204;28;20058;-79
2021/08/04 10:52:09;;;;;;;7.20;3.25;;;;;;;21.19;83.90;100436.00;5146041;28;20125;-79
2021/08/04 10:55:03;;;;;;;4.10;2.67;;;;;;;21.35;84.02;100428.47;5146909;28;20038;-79
2021/08/04 10:57:35;;;;;;;5.65;2.38;;;;;;;21.32;81.46;100434.06;5143845;28;20058;-79
2021/08/04 11:00:24;;;;;;;5.45;2.53;;;;;;;21.42;81.08;100435.00;5146673;28;20026;-80
2021/08/04 11:02:54;;;;;;;3.83;2.42;;;;;;;21.54;79.22;100418.03;5142609;28;20564;-80
2021/08/04 11:05:45;;;;;;;4.10;2.45;;;;;;;21.69;78.53;100427.41;5144266;28;20034;-80
2021/08/04 11:08:18;;;;;;;3.78;2.33;;;;;;;21.26;78.68;100424.75;5144178;28;20033;-81
2021/08/04 11:10:49;;;;;;;4.45;2.58;;;;;;;21.67;78.55;100418.72;5150622;28;20091;-80
2021/08/04 11:13:53;;;;;;;3.95;2.40;;;;;;;21.71;78.78;100415.69;5149829;28;20409;-80
2021/08/04 11:16:34;;;;;;;8.63;2.65;;;;;;;21.90;77.92;100421.13;5149913;28;20046;-80
2021/08/04 11:19:10;;;;;;;5.90;2.80;;;;;;;22.19;77.42;100424.84;5147686;28;20501;-80
2021/08/04 11:21:40;;;;;;;8.48;2.60;;;;;;;22.28;76.06;100416.03;5149840;28;20121;-80
2021/08/04 11:24:11;;;;;;;3.58;2.10;;;;;;;22.26;75.38;100418.00;5143263;28;20445;-80
2021/08/04 11:26:41;;;;;;;4.37;2.33;;;;;;;22.13;76.06;100409.41;5143945;28;20413;-80
2021/08/04 11:29:12;;;;;;;8.85;3.17;;;;;;;22.01;77.19;100406.91;5140877;28;20282;-80
2021/08/04 11:32:14;;;;;;;4.97;2.40;;;;;;;22.33;76.37;100413.00;5140455;28;20054;-80
2021/08/04 11:34:47;;;;;;;2.78;2.05;;;;;;;22.28;75.67;100400.06;5149132;28;20125;-80
2021/08/04 11:37:19;;;;;;;4.13;2.40;;;;;;;22.58;75.80;100404.59;5148229;28;20031;-80
2021/08/04 11:40:00;;;;;;;3.10;2.00;;;;;;;22.42;77.08;100404.25;5150286;28;20527;-80
2021/08/04 11:42:31;;;;;;;4.35;2.08;;;;;;;22.65;75.17;100400.41;5150667;28;20361;-81
2021/08/04 11:45:07;;;;;;;4.50;2.10;;;;;;;22.88;75.31;100400.91;5152409;28;20125;-79
2021/08/04 11:47:38;;;;;;;4.13;2.20;;;;;;;22.76;73.89;100391.34;5149929;28;20370;-80